sensor_id;sensor_type;location;lat;lon;timestamp;temperature;humidity
18229;DHT22;9239;50.932;3.142;2022-12-18T00:02:19;-3.60;99.90
18229;DHT22;9239;50.932;3.142;2022-12-18T00:04:47;-3.60;99.90
18229;DHT22;9239;50.932;3.142;2022-12-18T00:07:14;-3.60;99.90
18229;DHT22;9239;50.932;3.142;2022-12-18T00:09:42;-3.70;99.90
18229;DHT22;9239;50.932;3.142;2022-12-18T00:12:09;-3.70;99.90
18229;DHT22;9239;50.932;3.142;2022-12-18T00:14:36;-3.70;99.90
18229;DHT22;9239;50.932;3.142;2022-12-18T00:17:03;-3.70;99.90
18229;DHT22;9239;50.932;3.142;2022-12-18T00:19:30;-3.70;99.90
18229;DHT22;9239;50.932;3.142;2022-12-18T00:21:57;-3.80;99.90
18229;DHT22;9239;50.932;3.142;2022-12-18T00:24:24;-3.80;99.90
18229;DHT22;9239;50.932;3.142;2022-12-18T00:26:52;-3.80;99.90
18229;DHT22;9239;50.932;3.142;2022-12-18T00:29:19;-3.90;99.90
18229;DHT22;9239;50.932;3.142;2022-12-18T00:31:46;-3.90;99.90
18229;DHT22;9239;50.932;3.142;2022-12-18T00:34:13;-4.00;99.90
18229;DHT22;9239;50.932;3.142;2022-12-18T00:36:40;-3.90;99.90
18229;DHT22;9239;50.932;3.142;2022-12-18T00:39:07;-3.90;99.90
18229;DHT22;9239;50.932;3.142;2022-12-18T00:41:34;-3.90;99.90
18229;DHT22;9239;50.932;3.142;2022-12-18T00:44:20;-3.80;99.90
18229;DHT22;9239;50.932;3.142;2022-12-18T00:46:48;-3.80;99.90
18229;DHT22;9239;50.932;3.142;2022-12-18T00:49:15;-3.90;99.90
18229;DHT22;9239;50.932;3.142;2022-12-18T00:51:43;-3.90;99.90
18229;DHT22;9239;50.932;3.142;2022-12-18T00:54:10;-3.90;99.90
18229;DHT22;9239;50.932;3.142;2022-12-18T00:56:38;-3.90;99.90
18229;DHT22;9239;50.932;3.142;2022-12-18T00:59:05;-4.00;99.90
18229;DHT22;9239;50.932;3.142;2022-12-18T01:01:34;-3.90;99.90
18229;DHT22;9239;50.932;3.142;2022-12-18T01:04:01;-3.90;99.90
18229;DHT22;9239;50.932;3.142;2022-12-18T01:06:29;-3.90;99.90
18229;DHT22;9239;50.932;3.142;2022-12-18T01:08:56;-3.90;99.90
18229;DHT22;9239;50.932;3.142;2022-12-18T01:11:24;-3.90;99.90
18229;DHT22;9239;50.932;3.142;2022-12-18T01:13:52;-4.00;99.90
18229;DHT22;9239;50.932;3.142;2022-12-18T01:16:19;-4.10;99.90
18229;DHT22;9239;50.932;3.142;2022-12-18T01:18:51;-4.10;99.90
18229;DHT22;9239;50.932;3.142;2022-12-18T01:21:18;-4.10;99.90
18229;DHT22;9239;50.932;3.142;2022-12-18T01:23:46;-4.10;99.90
18229;DHT22;9239;50.932;3.142;2022-12-18T01:26:14;-4.10;99.90
18229;DHT22;9239;50.932;3.142;2022-12-18T01:28:42;-4.10;99.90
18229;DHT22;9239;50.932;3.142;2022-12-18T01:31:15;-4.20;99.90
18229;DHT22;9239;50.932;3.142;2022-12-18T01:33:42;-4.30;99.90
18229;DHT22;9239;50.932;3.142;2022-12-18T01:36:14;-4.40;99.90
18229;DHT22;9239;50.932;3.142;2022-12-18T01:38:41;-4.40;99.90
18229;DHT22;9239;50.932;3.142;2022-12-18T01:41:09;-4.50;99.90
18229;DHT22;9239;50.932;3.142;2022-12-18T01:43:48;-4.50;99.90
18229;DHT22;9239;50.932;3.142;2022-12-18T01:46:16;-4.50;99.90
18229;DHT22;9239;50.932;3.142;2022-12-18T01:48:45;-4.40;99.90
18229;DHT22;9239;50.932;3.142;2022-12-18T01:51:15;-4.40;99.90
18229;DHT22;9239;50.932;3.142;2022-12-18T01:53:43;-4.40;99.90
18229;DHT22;9239;50.932;3.142;2022-12-18T01:56:13;-4.40;99.90
18229;DHT22;9239;50.932;3.142;2022-12-18T01:58:46;-4.40;99.90
18229;DHT22;9239;50.932;3.142;2022-12-18T02:01:15;-4.50;99.90
18229;DHT22;9239;50.932;3.142;2022-12-18T02:03:43;-4.40;99.90
18229;DHT22;9239;50.932;3.142;2022-12-18T02:06:15;-4.40;99.90
18229;DHT22;9239;50.932;3.142;2022-12-18T02:08:55;-4.50;99.90
18229;DHT22;9239;50.932;3.142;2022-12-18T02:11:35;-4.60;99.90
18229;DHT22;9239;50.932;3.142;2022-12-18T02:14:14;-4.60;99.90
18229;DHT22;9239;50.932;3.142;2022-12-18T02:16:46;-4.70;99.90
18229;DHT22;9239;50.932;3.142;2022-12-18T02:19:27;-4.70;99.90
18229;DHT22;9239;50.932;3.142;2022-12-18T02:22:11;-4.70;99.90
18229;DHT22;9239;50.932;3.142;2022-12-18T02:24:45;-4.80;99.90
18229;DHT22;9239;50.932;3.142;2022-12-18T02:27:19;-4.80;99.90
18229;DHT22;9239;50.932;3.142;2022-12-18T02:29:50;-4.90;99.90
18229;DHT22;9239;50.932;3.142;2022-12-18T02:32:21;-4.90;99.90
18229;DHT22;9239;50.932;3.142;2022-12-18T02:34:51;-4.90;99.90
18229;DHT22;9239;50.932;3.142;2022-12-18T02:37:20;-5.00;99.90
18229;DHT22;9239;50.932;3.142;2022-12-18T02:39:49;-5.00;99.90
18229;DHT22;9239;50.932;3.142;2022-12-18T02:42:16;-5.00;99.90
18229;DHT22;9239;50.932;3.142;2022-12-18T02:44:47;-4.90;99.90
18229;DHT22;9239;50.932;3.142;2022-12-18T02:47:17;-4.90;99.90
18229;DHT22;9239;50.932;3.142;2022-12-18T02:49:52;-4.80;99.90
18229;DHT22;9239;50.932;3.142;2022-12-18T02:52:24;-4.80;99.90
18229;DHT22;9239;50.932;3.142;2022-12-18T02:55:00;-4.80;99.90
18229;DHT22;9239;50.932;3.142;2022-12-18T02:57:36;-4.80;99.90
18229;DHT22;9239;50.932;3.142;2022-12-18T03:00:11;-4.80;99.90
18229;DHT22;9239;50.932;3.142;2022-12-18T03:02:43;-4.70;99.90
18229;DHT22;9239;50.932;3.142;2022-12-18T03:05:16;-4.60;99.90
18229;DHT22;9239;50.932;3.142;2022-12-18T03:07:47;-4.50;99.90
18229;DHT22;9239;50.932;3.142;2022-12-18T03:10:21;-4.30;99.90
18229;DHT22;9239;50.932;3.142;2022-12-18T03:12:52;-4.20;99.90
18229;DHT22;9239;50.932;3.142;2022-12-18T03:15:24;-4.20;99.90
18229;DHT22;9239;50.932;3.142;2022-12-18T03:17:56;-4.10;99.90
18229;DHT22;9239;50.932;3.142;2022-12-18T03:20:27;-4.20;99.90
18229;DHT22;9239;50.932;3.142;2022-12-18T03:22:59;-4.20;99.90
18229;DHT22;9239;50.932;3.142;2022-12-18T03:25:31;-4.20;99.90
18229;DHT22;9239;50.932;3.142;2022-12-18T03:28:00;-4.30;99.90
18229;DHT22;9239;50.932;3.142;2022-12-18T03:30:31;-4.30;99.90
18229;DHT22;9239;50.932;3.142;2022-12-18T03:33:02;-4.30;99.90
18229;DHT22;9239;50.932;3.142;2022-12-18T03:35:33;-4.30;99.90
18229;DHT22;9239;50.932;3.142;2022-12-18T03:38:01;-4.20;99.90
18229;DHT22;9239;50.932;3.142;2022-12-18T03:40:34;-4.20;99.90
18229;DHT22;9239;50.932;3.142;2022-12-18T03:43:05;-4.20;99.90
18229;DHT22;9239;50.932;3.142;2022-12-18T03:45:40;-4.20;99.90
18229;DHT22;9239;50.932;3.142;2022-12-18T03:48:12;-4.30;99.90
18229;DHT22;9239;50.932;3.142;2022-12-18T03:50:46;-4.30;99.90
18229;DHT22;9239;50.932;3.142;2022-12-18T03:53:22;-4.20;99.90
18229;DHT22;9239;50.932;3.142;2022-12-18T03:55:51;-4.30;99.90
18229;DHT22;9239;50.932;3.142;2022-12-18T03:58:20;-4.30;99.90
18229;DHT22;9239;50.932;3.142;2022-12-18T04:00:52;-4.30;99.90
18229;DHT22;9239;50.932;3.142;2022-12-18T04:03:21;-4.40;99.90
18229;DHT22;9239;50.932;3.142;2022-12-18T04:05:51;-4.40;99.90
18229;DHT22;9239;50.932;3.142;2022-12-18T04:08:19;-4.40;99.90
18229;DHT22;9239;50.932;3.142;2022-12-18T04:10:47;-4.50;99.90
18229;DHT22;9239;50.932;3.142;2022-12-18T04:13:22;-4.60;99.90
18229;DHT22;9239;50.932;3.142;2022-12-18T04:15:49;-4.60;99.90
18229;DHT22;9239;50.932;3.142;2022-12-18T04:18:17;-4.70;99.90
18229;DHT22;9239;50.932;3.142;2022-12-18T04:20:44;-4.70;99.90
18229;DHT22;9239;50.932;3.142;2022-12-18T04:23:11;-4.80;99.90
18229;DHT22;9239;50.932;3.142;2022-12-18T04:25:37;-4.90;99.90
18229;DHT22;9239;50.932;3.142;2022-12-18T04:28:04;-4.90;99.90
18229;DHT22;9239;50.932;3.142;2022-12-18T04:30:31;-4.90;99.90
18229;DHT22;9239;50.932;3.142;2022-12-18T04:32:58;-5.00;99.90
18229;DHT22;9239;50.932;3.142;2022-12-18T04:35:26;-5.00;99.90
18229;DHT22;9239;50.932;3.142;2022-12-18T04:37:53;-5.00;99.90
18229;DHT22;9239;50.932;3.142;2022-12-18T04:40:20;-5.00;99.90
18229;DHT22;9239;50.932;3.142;2022-12-18T04:42:47;-5.00;99.90
18229;DHT22;9239;50.932;3.142;2022-12-18T04:45:14;-5.10;99.90
18229;DHT22;9239;50.932;3.142;2022-12-18T04:47:41;-5.10;99.90
18229;DHT22;9239;50.932;3.142;2022-12-18T04:50:08;-5.20;99.90
18229;DHT22;9239;50.932;3.142;2022-12-18T04:52:36;-5.20;99.90
18229;DHT22;9239;50.932;3.142;2022-12-18T04:55:04;-5.20;99.90
18229;DHT22;9239;50.932;3.142;2022-12-18T04:57:31;-5.20;99.90
18229;DHT22;9239;50.932;3.142;2022-12-18T04:59:58;-5.30;99.90
18229;DHT22;9239;50.932;3.142;2022-12-18T05:02:25;-5.20;99.90
18229;DHT22;9239;50.932;3.142;2022-12-18T05:04:51;-5.30;99.90
18229;DHT22;9239;50.932;3.142;2022-12-18T05:07:19;-5.20;99.90
18229;DHT22;9239;50.932;3.142;2022-12-18T05:09:47;-5.20;99.90
18229;DHT22;9239;50.932;3.142;2022-12-18T05:12:14;-5.20;99.90
18229;DHT22;9239;50.932;3.142;2022-12-18T05:14:41;-5.20;99.90
18229;DHT22;9239;50.932;3.142;2022-12-18T05:17:08;-5.20;99.90
18229;DHT22;9239;50.932;3.142;2022-12-18T05:19:34;-5.20;99.90
18229;DHT22;9239;50.932;3.142;2022-12-18T05:22:01;-5.20;99.90
18229;DHT22;9239;50.932;3.142;2022-12-18T05:24:28;-5.20;99.90
18229;DHT22;9239;50.932;3.142;2022-12-18T05:26:57;-5.30;99.90
18229;DHT22;9239;50.932;3.142;2022-12-18T05:29:24;-5.30;99.90
18229;DHT22;9239;50.932;3.142;2022-12-18T05:31:51;-5.30;99.90
18229;DHT22;9239;50.932;3.142;2022-12-18T05:34:17;-5.30;99.90
18229;DHT22;9239;50.932;3.142;2022-12-18T05:36:44;-5.30;99.90
18229;DHT22;9239;50.932;3.142;2022-12-18T05:39:11;-5.30;99.90
18229;DHT22;9239;50.932;3.142;2022-12-18T05:41:38;-5.30;99.90
18229;DHT22;9239;50.932;3.142;2022-12-18T05:44:06;-5.30;99.90
18229;DHT22;9239;50.932;3.142;2022-12-18T05:46:33;-5.30;99.90
18229;DHT22;9239;50.932;3.142;2022-12-18T05:49:00;-5.30;99.90
18229;DHT22;9239;50.932;3.142;2022-12-18T05:51:27;-5.30;99.90
18229;DHT22;9239;50.932;3.142;2022-12-18T05:53:55;-5.30;99.90
18229;DHT22;9239;50.932;3.142;2022-12-18T05:56:22;-5.30;99.90
18229;DHT22;9239;50.932;3.142;2022-12-18T05:58:51;-5.30;99.90
18229;DHT22;9239;50.932;3.142;2022-12-18T06:01:23;-5.20;99.90
18229;DHT22;9239;50.932;3.142;2022-12-18T06:03:50;-5.20;99.90
18229;DHT22;9239;50.932;3.142;2022-12-18T06:06:19;-5.20;99.90
18229;DHT22;9239;50.932;3.142;2022-12-18T06:08:48;-5.20;99.90
18229;DHT22;9239;50.932;3.142;2022-12-18T06:11:17;-5.20;99.90
18229;DHT22;9239;50.932;3.142;2022-12-18T06:13:44;-5.20;99.90
18229;DHT22;9239;50.932;3.142;2022-12-18T06:16:12;-5.20;99.90
18229;DHT22;9239;50.932;3.142;2022-12-18T06:18:40;-5.20;99.90
18229;DHT22;9239;50.932;3.142;2022-12-18T06:21:07;-5.20;99.90
18229;DHT22;9239;50.932;3.142;2022-12-18T06:23:34;-5.10;99.90
18229;DHT22;9239;50.932;3.142;2022-12-18T06:26:04;-5.10;99.90
18229;DHT22;9239;50.932;3.142;2022-12-18T06:28:31;-5.00;99.90
18229;DHT22;9239;50.932;3.142;2022-12-18T06:30:58;-4.90;99.90
18229;DHT22;9239;50.932;3.142;2022-12-18T06:33:27;-4.80;99.90
18229;DHT22;9239;50.932;3.142;2022-12-18T06:35:59;-4.70;99.90
18229;DHT22;9239;50.932;3.142;2022-12-18T06:38:27;-4.60;99.90
18229;DHT22;9239;50.932;3.142;2022-12-18T06:40:54;-4.50;99.90
18229;DHT22;9239;50.932;3.142;2022-12-18T06:43:21;-4.40;99.90
18229;DHT22;9239;50.932;3.142;2022-12-18T06:45:48;-4.30;99.90
18229;DHT22;9239;50.932;3.142;2022-12-18T06:48:18;-4.30;99.90
18229;DHT22;9239;50.932;3.142;2022-12-18T06:50:45;-4.20;99.90
18229;DHT22;9239;50.932;3.142;2022-12-18T06:53:13;-4.20;99.90
18229;DHT22;9239;50.932;3.142;2022-12-18T06:55:40;-4.10;99.90
18229;DHT22;9239;50.932;3.142;2022-12-18T06:58:07;-4.20;99.90
18229;DHT22;9239;50.932;3.142;2022-12-18T07:00:34;-4.10;99.90
18229;DHT22;9239;50.932;3.142;2022-12-18T07:03:01;-4.20;99.90
18229;DHT22;9239;50.932;3.142;2022-12-18T07:05:28;-4.10;99.90
18229;DHT22;9239;50.932;3.142;2022-12-18T07:07:55;-4.10;99.90
18229;DHT22;9239;50.932;3.142;2022-12-18T07:10:23;-4.20;99.90
18229;DHT22;9239;50.932;3.142;2022-12-18T07:12:50;-4.20;99.90
18229;DHT22;9239;50.932;3.142;2022-12-18T07:15:17;-4.20;99.90
18229;DHT22;9239;50.932;3.142;2022-12-18T07:17:44;-4.20;99.90
18229;DHT22;9239;50.932;3.142;2022-12-18T07:20:11;-4.30;99.90
18229;DHT22;9239;50.932;3.142;2022-12-18T07:22:38;-4.30;99.90
18229;DHT22;9239;50.932;3.142;2022-12-18T07:25:06;-4.20;99.90
18229;DHT22;9239;50.932;3.142;2022-12-18T07:27:35;-4.10;99.90
18229;DHT22;9239;50.932;3.142;2022-12-18T07:30:02;-4.10;99.90
18229;DHT22;9239;50.932;3.142;2022-12-18T07:32:30;-4.00;99.90
18229;DHT22;9239;50.932;3.142;2022-12-18T07:34:57;-4.00;99.90
18229;DHT22;9239;50.932;3.142;2022-12-18T07:37:24;-4.00;99.90
18229;DHT22;9239;50.932;3.142;2022-12-18T07:39:51;-4.00;99.90
18229;DHT22;9239;50.932;3.142;2022-12-18T07:42:17;-3.90;99.90
18229;DHT22;9239;50.932;3.142;2022-12-18T07:44:58;-3.80;99.90
18229;DHT22;9239;50.932;3.142;2022-12-18T07:47:25;-3.80;99.90
18229;DHT22;9239;50.932;3.142;2022-12-18T07:49:52;-3.80;99.90
18229;DHT22;9239;50.932;3.142;2022-12-18T07:52:19;-3.70;99.90
18229;DHT22;9239;50.932;3.142;2022-12-18T07:54:46;-3.60;99.90
18229;DHT22;9239;50.932;3.142;2022-12-18T07:57:14;-3.50;99.90
18229;DHT22;9239;50.932;3.142;2022-12-18T07:59:41;-3.50;99.90
18229;DHT22;9239;50.932;3.142;2022-12-18T08:02:09;-3.40;99.90
18229;DHT22;9239;50.932;3.142;2022-12-18T08:04:36;-3.40;99.90
18229;DHT22;9239;50.932;3.142;2022-12-18T08:07:03;-3.20;99.90
18229;DHT22;9239;50.932;3.142;2022-12-18T08:09:30;-3.20;99.90
18229;DHT22;9239;50.932;3.142;2022-12-18T08:11:57;-3.10;99.90
18229;DHT22;9239;50.932;3.142;2022-12-18T08:14:24;-3.00;99.90
18229;DHT22;9239;50.932;3.142;2022-12-18T08:16:51;-3.00;99.90
18229;DHT22;9239;50.932;3.142;2022-12-18T08:19:19;-2.90;99.90
18229;DHT22;9239;50.932;3.142;2022-12-18T08:21:46;-2.90;99.90
18229;DHT22;9239;50.932;3.142;2022-12-18T08:24:13;-2.80;99.90
18229;DHT22;9239;50.932;3.142;2022-12-18T08:26:40;-2.70;99.90
18229;DHT22;9239;50.932;3.142;2022-12-18T08:29:08;-2.70;99.90
18229;DHT22;9239;50.932;3.142;2022-12-18T08:31:35;-2.70;99.90
18229;DHT22;9239;50.932;3.142;2022-12-18T08:34:02;-2.70;99.90
18229;DHT22;9239;50.932;3.142;2022-12-18T08:36:30;-2.60;99.90
18229;DHT22;9239;50.932;3.142;2022-12-18T08:38:57;-2.60;99.90
18229;DHT22;9239;50.932;3.142;2022-12-18T08:41:24;-2.50;99.90
18229;DHT22;9239;50.932;3.142;2022-12-18T08:43:51;-2.30;99.90
18229;DHT22;9239;50.932;3.142;2022-12-18T08:46:37;-2.30;99.90
18229;DHT22;9239;50.932;3.142;2022-12-18T08:49:04;-2.20;99.90
18229;DHT22;9239;50.932;3.142;2022-12-18T08:51:33;-2.30;99.90
18229;DHT22;9239;50.932;3.142;2022-12-18T08:54:00;-2.30;99.90
18229;DHT22;9239;50.932;3.142;2022-12-18T08:56:27;-2.20;99.90
18229;DHT22;9239;50.932;3.142;2022-12-18T08:58:55;-2.20;99.90
18229;DHT22;9239;50.932;3.142;2022-12-18T09:01:23;-2.20;99.90
18229;DHT22;9239;50.932;3.142;2022-12-18T09:03:50;-2.20;99.90
18229;DHT22;9239;50.932;3.142;2022-12-18T09:06:19;-2.10;99.90
18229;DHT22;9239;50.932;3.142;2022-12-18T09:08:48;-2.10;99.90
18229;DHT22;9239;50.932;3.142;2022-12-18T09:11:19;-2.00;99.90
18229;DHT22;9239;50.932;3.142;2022-12-18T09:13:46;-2.00;99.90
18229;DHT22;9239;50.932;3.142;2022-12-18T09:16:13;-2.00;99.90
18229;DHT22;9239;50.932;3.142;2022-12-18T09:18:40;-2.00;99.90
18229;DHT22;9239;50.932;3.142;2022-12-18T09:21:08;-2.00;99.90
18229;DHT22;9239;50.932;3.142;2022-12-18T09:23:35;-1.90;99.90
18229;DHT22;9239;50.932;3.142;2022-12-18T09:26:04;-1.90;99.90
18229;DHT22;9239;50.932;3.142;2022-12-18T09:28:31;-1.90;99.90
18229;DHT22;9239;50.932;3.142;2022-12-18T09:30:58;-1.80;99.90
18229;DHT22;9239;50.932;3.142;2022-12-18T09:33:25;-1.80;99.90
18229;DHT22;9239;50.932;3.142;2022-12-18T09:35:52;-1.80;99.90
18229;DHT22;9239;50.932;3.142;2022-12-18T09:38:19;-1.80;99.90
18229;DHT22;9239;50.932;3.142;2022-12-18T09:40:48;-1.70;99.90
18229;DHT22;9239;50.932;3.142;2022-12-18T09:43:18;-1.60;99.90
18229;DHT22;9239;50.932;3.142;2022-12-18T09:45:49;-1.60;99.90
18229;DHT22;9239;50.932;3.142;2022-12-18T09:48:20;-1.60;99.90
18229;DHT22;9239;50.932;3.142;2022-12-18T09:50:48;-1.70;99.90
18229;DHT22;9239;50.932;3.142;2022-12-18T09:53:20;-1.60;99.90
18229;DHT22;9239;50.932;3.142;2022-12-18T09:55:49;-1.60;99.90
18229;DHT22;9239;50.932;3.142;2022-12-18T09:58:23;-1.50;99.90
18229;DHT22;9239;50.932;3.142;2022-12-18T10:00:52;-1.50;99.90
18229;DHT22;9239;50.932;3.142;2022-12-18T10:03:19;-1.40;99.90
18229;DHT22;9239;50.932;3.142;2022-12-18T10:05:55;-1.50;99.90
18229;DHT22;9239;50.932;3.142;2022-12-18T10:08:33;-1.50;99.90
18229;DHT22;9239;50.932;3.142;2022-12-18T10:11:26;-1.50;99.90
18229;DHT22;9239;50.932;3.142;2022-12-18T10:14:00;-1.40;99.90
18229;DHT22;9239;50.932;3.142;2022-12-18T10:16:35;-1.40;99.90
18229;DHT22;9239;50.932;3.142;2022-12-18T10:19:18;-1.40;99.90
18229;DHT22;9239;50.932;3.142;2022-12-18T10:21:51;-1.30;99.90
18229;DHT22;9239;50.932;3.142;2022-12-18T10:24:25;-1.30;99.90
18229;DHT22;9239;50.932;3.142;2022-12-18T10:26:56;-1.20;99.90
18229;DHT22;9239;50.932;3.142;2022-12-18T10:29:28;-1.20;99.90
18229;DHT22;9239;50.932;3.142;2022-12-18T10:31:55;-1.10;99.90
18229;DHT22;9239;50.932;3.142;2022-12-18T10:34:23;-1.10;99.90
18229;DHT22;9239;50.932;3.142;2022-12-18T10:36:50;-1.00;99.90
18229;DHT22;9239;50.932;3.142;2022-12-18T10:39:19;-1.00;99.90
18229;DHT22;9239;50.932;3.142;2022-12-18T10:41:47;-1.00;99.90
18229;DHT22;9239;50.932;3.142;2022-12-18T10:44:18;-1.00;99.90
18229;DHT22;9239;50.932;3.142;2022-12-18T10:46:49;-1.00;99.90
18229;DHT22;9239;50.932;3.142;2022-12-18T10:49:22;-1.00;99.90
18229;DHT22;9239;50.932;3.142;2022-12-18T10:51:49;-1.00;99.90
18229;DHT22;9239;50.932;3.142;2022-12-18T10:54:21;-1.00;99.90
18229;DHT22;9239;50.932;3.142;2022-12-18T10:56:48;-1.00;99.90
18229;DHT22;9239;50.932;3.142;2022-12-18T10:59:17;-1.00;99.90
18229;DHT22;9239;50.932;3.142;2022-12-18T11:01:50;-1.00;99.90
18229;DHT22;9239;50.932;3.142;2022-12-18T11:04:20;-0.90;99.90
18229;DHT22;9239;50.932;3.142;2022-12-18T11:07:08;-0.90;99.90
18229;DHT22;9239;50.932;3.142;2022-12-18T11:09:37;-0.90;99.90
18229;DHT22;9239;50.932;3.142;2022-12-18T11:12:17;-0.80;99.90
18229;DHT22;9239;50.932;3.142;2022-12-18T11:14:48;-0.80;99.90
18229;DHT22;9239;50.932;3.142;2022-12-18T11:17:21;-0.80;99.90
18229;DHT22;9239;50.932;3.142;2022-12-18T11:19:53;-0.80;99.90
18229;DHT22;9239;50.932;3.142;2022-12-18T11:22:23;-0.80;99.90
18229;DHT22;9239;50.932;3.142;2022-12-18T11:24:54;-0.80;99.90
18229;DHT22;9239;50.932;3.142;2022-12-18T11:27:21;-0.70;99.90
18229;DHT22;9239;50.932;3.142;2022-12-18T11:29:50;-0.70;99.90
18229;DHT22;9239;50.932;3.142;2022-12-18T11:32:35;-0.70;99.90
18229;DHT22;9239;50.932;3.142;2022-12-18T11:35:13;-0.70;99.90
18229;DHT22;9239;50.932;3.142;2022-12-18T11:37:44;-0.70;99.90
18229;DHT22;9239;50.932;3.142;2022-12-18T11:40:16;-0.60;99.90
18229;DHT22;9239;50.932;3.142;2022-12-18T11:42:49;-0.60;99.90
18229;DHT22;9239;50.932;3.142;2022-12-18T11:45:25;-0.60;99.90
18229;DHT22;9239;50.932;3.142;2022-12-18T11:47:58;-0.60;99.90
18229;DHT22;9239;50.932;3.142;2022-12-18T11:50:30;-0.50;99.90
18229;DHT22;9239;50.932;3.142;2022-12-18T11:52:58;-0.50;99.90
18229;DHT22;9239;50.932;3.142;2022-12-18T11:55:32;-0.50;99.90
18229;DHT22;9239;50.932;3.142;2022-12-18T11:58:07;-0.40;99.90
18229;DHT22;9239;50.932;3.142;2022-12-18T12:00:39;-0.40;99.90
18229;DHT22;9239;50.932;3.142;2022-12-18T12:03:24;-0.40;99.90
18229;DHT22;9239;50.932;3.142;2022-12-18T12:06:10;-0.30;99.90
18229;DHT22;9239;50.932;3.142;2022-12-18T12:08:49;-0.30;99.90
18229;DHT22;9239;50.932;3.142;2022-12-18T12:11:24;-0.30;99.90
18229;DHT22;9239;50.932;3.142;2022-12-18T12:14:09;-0.30;99.90
18229;DHT22;9239;50.932;3.142;2022-12-18T12:16:45;-0.20;99.90
18229;DHT22;9239;50.932;3.142;2022-12-18T12:19:25;-0.10;99.90
18229;DHT22;9239;50.932;3.142;2022-12-18T12:22:03;-0.20;99.90
18229;DHT22;9239;50.932;3.142;2022-12-18T12:24:44;-0.20;99.90
18229;DHT22;9239;50.932;3.142;2022-12-18T12:27:20;-0.20;99.90
18229;DHT22;9239;50.932;3.142;2022-12-18T12:29:59;-0.20;99.90
18229;DHT22;9239;50.932;3.142;2022-12-18T12:32:39;-0.20;99.90
18229;DHT22;9239;50.932;3.142;2022-12-18T12:35:22;-0.10;99.90
18229;DHT22;9239;50.932;3.142;2022-12-18T12:38:00;0.00;99.90
18229;DHT22;9239;50.932;3.142;2022-12-18T12:40:34;0.00;99.90
18229;DHT22;9239;50.932;3.142;2022-12-18T12:43:05;0.00;99.90
18229;DHT22;9239;50.932;3.142;2022-12-18T12:45:42;0.00;99.90
18229;DHT22;9239;50.932;3.142;2022-12-18T12:48:18;0.00;99.90
18229;DHT22;9239;50.932;3.142;2022-12-18T12:50:47;0.00;99.90
18229;DHT22;9239;50.932;3.142;2022-12-18T12:53:23;-0.10;99.90
18229;DHT22;9239;50.932;3.142;2022-12-18T12:55:50;0.00;99.90
18229;DHT22;9239;50.932;3.142;2022-12-18T12:58:26;0.00;99.90
18229;DHT22;9239;50.932;3.142;2022-12-18T13:01:04;-0.10;99.90
18229;DHT22;9239;50.932;3.142;2022-12-18T13:03:43;-0.10;99.90
18229;DHT22;9239;50.932;3.142;2022-12-18T13:06:16;0.00;99.90
18229;DHT22;9239;50.932;3.142;2022-12-18T13:08:55;0.00;99.90
18229;DHT22;9239;50.932;3.142;2022-12-18T13:11:31;0.00;99.90
18229;DHT22;9239;50.932;3.142;2022-12-18T13:14:21;0.00;99.90
18229;DHT22;9239;50.932;3.142;2022-12-18T13:16:49;0.00;99.90
18229;DHT22;9239;50.932;3.142;2022-12-18T13:19:22;0.10;99.90
18229;DHT22;9239;50.932;3.142;2022-12-18T13:21:55;0.10;99.90
18229;DHT22;9239;50.932;3.142;2022-12-18T13:24:25;0.10;99.90
18229;DHT22;9239;50.932;3.142;2022-12-18T13:26:53;0.10;99.90
18229;DHT22;9239;50.932;3.142;2022-12-18T13:29:42;0.10;99.90
18229;DHT22;9239;50.932;3.142;2022-12-18T13:32:22;0.10;99.90
18229;DHT22;9239;50.932;3.142;2022-12-18T13:37:56;0.10;99.90
18229;DHT22;9239;50.932;3.142;2022-12-18T13:40:54;0.10;99.90
18229;DHT22;9239;50.932;3.142;2022-12-18T13:43:31;0.10;99.90
18229;DHT22;9239;50.932;3.142;2022-12-18T13:46:01;0.10;99.90
18229;DHT22;9239;50.932;3.142;2022-12-18T13:48:32;0.10;99.90
18229;DHT22;9239;50.932;3.142;2022-12-18T13:51:02;0.10;99.90
18229;DHT22;9239;50.932;3.142;2022-12-18T13:53:34;0.20;99.90
18229;DHT22;9239;50.932;3.142;2022-12-18T13:56:03;0.10;99.90
18229;DHT22;9239;50.932;3.142;2022-12-18T13:58:30;0.00;99.90
18229;DHT22;9239;50.932;3.142;2022-12-18T14:00:57;0.00;99.90
18229;DHT22;9239;50.932;3.142;2022-12-18T14:03:28;0.10;99.90
18229;DHT22;9239;50.932;3.142;2022-12-18T14:05:59;0.10;99.90
18229;DHT22;9239;50.932;3.142;2022-12-18T14:08:34;0.10;99.90
18229;DHT22;9239;50.932;3.142;2022-12-18T14:11:02;0.20;99.90
18229;DHT22;9239;50.932;3.142;2022-12-18T14:13:31;0.20;99.90
18229;DHT22;9239;50.932;3.142;2022-12-18T14:16:01;0.20;99.90
18229;DHT22;9239;50.932;3.142;2022-12-18T14:18:33;0.20;99.90
18229;DHT22;9239;50.932;3.142;2022-12-18T14:21:04;0.10;99.90
18229;DHT22;9239;50.932;3.142;2022-12-18T14:23:35;0.10;99.90
18229;DHT22;9239;50.932;3.142;2022-12-18T14:26:18;0.10;99.90
18229;DHT22;9239;50.932;3.142;2022-12-18T14:28:46;0.10;99.90
18229;DHT22;9239;50.932;3.142;2022-12-18T14:31:17;0.20;99.90
18229;DHT22;9239;50.932;3.142;2022-12-18T14:33:44;0.20;99.90
18229;DHT22;9239;50.932;3.142;2022-12-18T14:36:15;0.30;99.90
18229;DHT22;9239;50.932;3.142;2022-12-18T14:38:48;0.20;99.90
18229;DHT22;9239;50.932;3.142;2022-12-18T14:41:16;0.20;99.90
18229;DHT22;9239;50.932;3.142;2022-12-18T14:43:45;0.20;99.90
18229;DHT22;9239;50.932;3.142;2022-12-18T14:46:28;0.20;99.90
18229;DHT22;9239;50.932;3.142;2022-12-18T14:48:55;0.20;99.90
18229;DHT22;9239;50.932;3.142;2022-12-18T14:51:24;0.20;99.90
18229;DHT22;9239;50.932;3.142;2022-12-18T14:53:55;0.10;99.90
18229;DHT22;9239;50.932;3.142;2022-12-18T14:56:25;0.10;99.90
18229;DHT22;9239;50.932;3.142;2022-12-18T14:58:54;0.10;99.90
18229;DHT22;9239;50.932;3.142;2022-12-18T15:01:24;0.10;99.90
18229;DHT22;9239;50.932;3.142;2022-12-18T15:03:53;0.20;99.90
18229;DHT22;9239;50.932;3.142;2022-12-18T15:06:34;0.10;99.90
18229;DHT22;9239;50.932;3.142;2022-12-18T15:09:05;0.10;99.90
18229;DHT22;9239;50.932;3.142;2022-12-18T15:11:46;0.10;99.90
18229;DHT22;9239;50.932;3.142;2022-12-18T15:14:39;0.10;99.90
18229;DHT22;9239;50.932;3.142;2022-12-18T15:17:15;0.10;99.90
18229;DHT22;9239;50.932;3.142;2022-12-18T15:19:43;0.10;99.90
18229;DHT22;9239;50.932;3.142;2022-12-18T15:22:23;0.10;99.90
18229;DHT22;9239;50.932;3.142;2022-12-18T15:24:53;0.10;99.90
18229;DHT22;9239;50.932;3.142;2022-12-18T15:27:26;0.10;99.90
18229;DHT22;9239;50.932;3.142;2022-12-18T15:32:42;0.10;99.90
18229;DHT22;9239;50.932;3.142;2022-12-18T15:35:13;0.10;99.90
18229;DHT22;9239;50.932;3.142;2022-12-18T15:37:41;0.10;99.90
18229;DHT22;9239;50.932;3.142;2022-12-18T15:40:12;0.10;99.90
18229;DHT22;9239;50.932;3.142;2022-12-18T15:42:40;0.10;99.90
18229;DHT22;9239;50.932;3.142;2022-12-18T15:45:24;0.10;99.90
18229;DHT22;9239;50.932;3.142;2022-12-18T15:47:51;0.10;99.90
18229;DHT22;9239;50.932;3.142;2022-12-18T15:50:18;0.10;99.90
18229;DHT22;9239;50.932;3.142;2022-12-18T15:52:47;0.10;99.90
18229;DHT22;9239;50.932;3.142;2022-12-18T15:55:18;0.10;99.90
18229;DHT22;9239;50.932;3.142;2022-12-18T15:58:03;0.10;99.90
18229;DHT22;9239;50.932;3.142;2022-12-18T16:00:31;0.10;99.90
18229;DHT22;9239;50.932;3.142;2022-12-18T16:02:59;0.10;99.90
18229;DHT22;9239;50.932;3.142;2022-12-18T16:05:27;0.10;99.90
18229;DHT22;9239;50.932;3.142;2022-12-18T16:07:54;0.20;99.90
18229;DHT22;9239;50.932;3.142;2022-12-18T16:10:22;0.10;99.90
18229;DHT22;9239;50.932;3.142;2022-12-18T16:12:50;0.20;99.90
18229;DHT22;9239;50.932;3.142;2022-12-18T16:15:17;0.20;99.90
18229;DHT22;9239;50.932;3.142;2022-12-18T16:17:46;0.20;99.90